메인 페이지
METAR-TAF:

METAR-TAF

공항 :

Elko, 네바다, 미국

위도: 40-49-30N, 경도: 115-47-30W, 고도: 1568m

현재 날씨관측

예보는 8분 전, 22:56시(UTC)에 발표되었습니다.
3kt
온도 14°C
습도 67%
기압 1018 hPa
시정: 16.1km
고도 7000ft 상공 흐림

METAR: KEKO 272256Z AUTO 08003KT 10SM OVC070 14/08 A3006 RMK AO2 SLP160 T01390083

시각: 16:04 (23:04 UTC)

예보

예보는 5 시간 41분 전, 17:23시(UTC)에 발표되었습니다.
예보 대상 시간: 27일 18시부터 28일 18시까지 (UTC)
남서10kt
시정: 10km
고도 3000ft 상공 구름 보통
고도 5000ft 상공 흐림
시계 내 소나기
27일 1900시부터 (UTC)
10kt
시정: 10km
고도 4000ft 상공 흐림
약한소나기
28일 0400시부터 (UTC)
여러 방향의 바람 5kt
시정: 10km
고도 5000ft 상공 구름 많음
시계 내 소나기

TAF: KEKO 271723Z 2718/2818 23010KT P6SM VCSH SCT030 OVC050 FM271900 27010KT P6SM -SHRA OVC040 FM280400 VRB05KT P6SM VCSH BKN050

4,000개 이상의 공항 관측 자료 및 예보 (METAR 및 TAF 보고).

지도상에서 검색 가능한 기상관측소가 노란 점과 빨간 점으로 표시되어 있습니다.

기상관측소 명을 보려면 표시 위로 마우스를 이동하세요.

날씨 관측과 예보를 보려면 클릭하세요.

지도 변경 : 확대하려면 엑스 표시가 있는 녹색 버튼, 축소하려면 빼기 표시가 있는 녹색 버튼, 다음 페이지의 지도를 보려면 녹색 화살표를 클릭하세요.


METAR-TAF: